Time;durP1;ratioP1;P1;durP2;ratioP2;P2;SDS_P1;SDS_P2;PMS_P1;PMS_P2;Temp;Humidity;BMP_temperature;BMP_pressure;BME280_temperature;BME280_humidity;BME280_pressure;Samples;Min_cycle;Max_cycle;Signal;HPM_P1;HPM_P2
2023/02/10 00:00:46;;;;;;;14.50;13.90;;;19.40;45.70;;;;;;5071301;28;20538;-54
2023/02/10 00:03:14;;;;;;;15.07;14.57;;;19.30;45.70;;;;;;5071298;28;20469;-57
2023/02/10 00:05:41;;;;;;;14.90;13.90;;;19.30;45.70;;;;;;5071353;28;20749;-55
2023/02/10 00:08:08;;;;;;;13.73;13.23;;;19.30;45.70;;;;;;5071629;28;20448;-55
2023/02/10 00:10:35;;;;;;;15.17;14.50;;;19.30;45.80;;;;;;5071218;28;20529;-57
2023/02/10 00:13:02;;;;;;;15.50;14.90;;;19.30;45.80;;;;;;5071147;28;21046;-58
2023/02/10 00:15:28;;;;;;;15.20;14.60;;;19.30;45.80;;;;;;5071528;28;20443;-58
2023/02/10 00:17:55;;;;;;;15.27;14.63;;;19.30;45.80;;;;;;5071309;28;20992;-55
2023/02/10 00:20:23;;;;;;;14.53;14.03;;;19.30;45.80;;;;;;5071125;28;20526;-58
2023/02/10 00:22:50;;;;;;;14.50;13.90;;;19.30;45.90;;;;;;5074127;28;20570;-55
2023/02/10 00:25:17;;;;;;;14.70;14.10;;;19.30;45.90;;;;;;5075169;28;20487;-55
2023/02/10 00:27:45;;;;;;;14.43;13.60;;;19.20;45.90;;;;;;5075235;28;20530;-56
2023/02/10 00:30:13;;;;;;;14.63;13.97;;;19.20;45.90;;;;;;5075069;28;20446;-58
2023/02/10 00:32:40;;;;;;;14.27;13.67;;;19.20;45.90;;;;;;5074797;28;20467;-53
2023/02/10 00:35:07;;;;;;;13.73;13.23;;;19.20;46.00;;;;;;5075072;28;20545;-55
2023/02/10 00:37:36;;;;;;;14.70;13.90;;;19.20;46.00;;;;;;5075115;28;20450;-54
2023/02/10 00:40:03;;;;;;;13.80;13.30;;;19.20;46.00;;;;;;5074561;28;20454;-57
2023/02/10 00:42:30;;;;;;;13.77;13.17;;;19.20;46.00;;;;;;5074758;28;20467;-57
2023/02/10 00:44:56;;;;;;;14.40;13.80;;;19.20;46.10;;;;;;5074893;28;20498;-57
2023/02/10 00:47:25;;;;;;;13.70;13.10;;;19.10;46.00;;;;;;5074853;28;20530;-55
2023/02/10 00:49:52;;;;;;;13.60;12.90;;;19.20;46.20;;;;;;5074738;28;20453;-57
2023/02/10 00:52:19;;;;;;;13.83;13.23;;;19.20;46.20;;;;;;5074713;28;20446;-56
2023/02/10 00:54:47;;;;;;;14.30;13.60;;;19.10;46.10;;;;;;5074570;28;20439;-55
2023/02/10 00:57:14;;;;;;;15.10;14.50;;;19.10;46.20;;;;;;5074755;28;20443;-53
2023/02/10 00:59:41;;;;;;;14.03;13.43;;;19.10;46.20;;;;;;5074277;28;20447;-60
2023/02/10 01:02:08;;;;;;;13.30;12.80;;;19.10;46.20;;;;;;5074404;28;20454;-58
2023/02/10 01:04:36;;;;;;;14.10;13.50;;;19.10;46.20;;;;;;5074772;28;20483;-58
2023/02/10 01:07:03;;;;;;;14.87;14.17;;;19.10;46.30;;;;;;5074666;28;20443;-55
2023/02/10 01:09:30;;;;;;;15.03;14.40;;;19.10;46.20;;;;;;5073781;28;21035;-55
2023/02/10 01:11:58;;;;;;;13.93;13.40;;;19.10;46.20;;;;;;5074445;28;20447;-54
2023/02/10 01:14:26;;;;;;;15.17;14.50;;;19.10;46.30;;;;;;5074184;28;20903;-53
2023/02/10 01:16:53;;;;;;;14.63;13.90;;;19.00;46.30;;;;;;5054402;28;20455;-54
2023/02/10 01:19:20;;;;;;;15.13;14.43;;;19.10;46.40;;;;;;5062681;28;20881;-57
2023/02/10 01:21:47;;;;;;;16.03;15.20;;;19.00;46.30;;;;;;5074169;28;20944;-57
2023/02/10 01:24:14;;;;;;;14.33;13.53;;;19.00;46.30;;;;;;5073982;28;20565;-58
2023/02/10 01:26:40;;;;;;;14.90;14.30;;;19.10;46.50;;;;;;5074047;28;20479;-54
2023/02/10 01:29:09;;;;;;;14.57;14.03;;;19.00;46.40;;;;;;5073682;28;20558;-54
2023/02/10 01:31:35;;;;;;;15.33;14.53;;;19.00;46.40;;;;;;5074041;28;20530;-55
2023/02/10 01:34:02;;;;;;;15.40;14.70;;;19.00;46.40;;;;;;5073554;28;20466;-55
2023/02/10 01:36:29;;;;;;;14.33;13.77;;;19.00;46.40;;;;;;5074026;28;20531;-54
2023/02/10 01:38:56;;;;;;;15.33;14.63;;;19.00;46.40;;;;;;5073406;28;20450;-58
2023/02/10 01:41:24;;;;;;;14.70;14.10;;;19.00;46.40;;;;;;5073898;28;20530;-57
2023/02/10 01:44:00;;;;;;;15.03;14.43;;;19.00;46.50;;;;;;5073768;28;20471;-53
2023/02/10 01:46:29;;;;;;;15.37;14.67;;;19.00;46.50;;;;;;5074174;28;20482;-56
2023/02/10 01:48:58;;;;;;;15.50;14.90;;;19.00;46.50;;;;;;5073252;28;20445;-55
2023/02/10 01:51:31;;;;;;;15.40;14.80;;;19.00;46.50;;;;;;5073619;28;20522;-57
2023/02/10 01:53:59;;;;;;;15.60;14.80;;;19.00;46.60;;;;;;5073665;28;20467;-57
2023/02/10 01:56:27;;;;;;;15.07;14.47;;;19.00;46.60;;;;;;5073574;28;20443;-57
2023/02/10 01:58:53;;;;;;;15.13;14.43;;;19.00;46.60;;;;;;5073213;28;20444;-56
2023/02/10 02:01:20;;;;;;;15.10;14.30;;;19.00;46.60;;;;;;5073480;28;20471;-56
2023/02/10 02:03:49;;;;;;;14.80;14.20;;;19.00;46.60;;;;;;5073326;28;20467;-56
2023/02/10 02:06:16;;;;;;;15.23;14.63;;;18.90;46.60;;;;;;5073132;28;20475;-55
2023/02/10 02:08:43;;;;;;;14.40;13.80;;;18.90;46.50;;;;;;5073328;28;20443;-57
2023/02/10 02:11:19;;;;;;;15.67;15.07;;;19.00;46.70;;;;;;5073057;28;20453;-55
2023/02/10 02:14:26;;;;;;;14.90;14.30;;;18.90;46.50;;;;;;5073214;28;20467;-55
2023/02/10 02:17:03;;;;;;;15.40;14.60;;;18.90;46.60;;;;;;4972170;28;20443;-58
2023/02/10 02:23:06;;;;;;;16.30;15.60;;;18.90;46.60;;;;;;5053165;28;20483;-54
2023/02/10 02:25:52;;;;;;;15.40;14.80;;;18.90;46.60;;;;;;5067647;28;20482;-56
2023/02/10 02:28:30;;;;;;;15.17;14.40;;;18.90;46.70;;;;;;5073063;28;20955;-57
2023/02/10 02:31:28;;;;;;;14.73;14.20;;;18.90;46.70;;;;;;5072692;28;20445;-58
2023/02/10 02:34:00;;;;;;;15.80;15.00;;;18.90;46.70;;;;;;5029201;28;20469;-56
2023/02/10 02:36:31;;;;;;;15.27;14.47;;;18.90;46.70;;;;;;5072791;28;20439;-57
2023/02/10 02:39:01;;;;;;;14.87;14.27;;;18.90;46.70;;;;;;5072487;28;20435;-56
2023/02/10 02:41:28;;;;;;;15.53;14.83;;;18.90;46.80;;;;;;5072685;28;20442;-56
2023/02/10 02:43:56;;;;;;;15.20;14.60;;;18.90;46.80;;;;;;5071791;28;20463;-57
2023/02/10 02:46:28;;;;;;;15.97;15.37;;;18.90;46.80;;;;;;5072866;28;20486;-60
2023/02/10 02:49:01;;;;;;;15.13;14.43;;;18.90;46.80;;;;;;5078818;28;20942;-59
2023/02/10 02:51:37;;;;;;;15.20;14.53;;;18.90;46.80;;;;;;5072557;28;20466;-56
2023/02/10 02:54:21;;;;;;;16.03;15.33;;;18.90;46.80;;;;;;5072130;28;20949;-57
2023/02/10 02:56:54;;;;;;;15.73;15.13;;;18.90;46.80;;;;;;5072472;28;20451;-56
2023/02/10 02:59:30;;;;;;;15.40;14.70;;;18.90;46.90;;;;;;5072324;28;20447;-56
2023/02/10 03:02:01;;;;;;;14.53;13.93;;;18.90;46.90;;;;;;5072402;28;20954;-56
2023/02/10 03:04:30;;;;;;;14.83;14.23;;;18.90;46.90;;;;;;5072109;28;21006;-57
2023/02/10 03:06:57;;;;;;;15.50;14.70;;;18.90;46.90;;;;;;5072229;28;20841;-59
2023/02/10 03:09:24;;;;;;;15.33;14.63;;;18.80;46.90;;;;;;5072131;28;20526;-58
2023/02/10 03:11:50;;;;;;;14.73;14.13;;;18.90;46.90;;;;;;5071838;28;20443;-59
2023/02/10 03:14:17;;;;;;;16.30;15.60;;;18.90;47.00;;;;;;5072227;28;20983;-57
2023/02/10 03:16:44;;;;;;;14.53;14.03;;;18.90;47.00;;;;;;5072128;28;20448;-58
2023/02/10 03:19:12;;;;;;;15.93;15.10;;;18.90;47.00;;;;;;5072304;28;20530;-57
2023/02/10 03:21:39;;;;;;;16.13;15.30;;;18.80;47.00;;;;;;5072780;28;20534;-56
2023/02/10 03:24:08;;;;;;;15.37;14.67;;;18.80;47.00;;;;;;5073214;28;20494;-56
2023/02/10 03:26:35;;;;;;;15.13;14.43;;;18.80;47.00;;;;;;5073435;28;20475;-53
2023/02/10 03:29:02;;;;;;;15.43;14.73;;;18.90;47.10;;;;;;5076120;28;20443;-54
2023/02/10 03:31:29;;;;;;;15.23;14.53;;;18.80;47.00;;;;;;5072799;28;20825;-55
2023/02/10 03:33:56;;;;;;;16.17;15.40;;;18.80;46.90;;;;;;5071815;28;20894;-58
2023/02/10 03:36:24;;;;;;;15.73;15.00;;;18.80;47.00;;;;;;5071827;28;20440;-58
2023/02/10 03:38:51;;;;;;;15.87;15.27;;;18.80;47.00;;;;;;5071735;28;20872;-55
2023/02/10 03:41:18;;;;;;;15.73;15.03;;;18.80;47.00;;;;;;5071639;28;20519;-57
2023/02/10 03:43:44;;;;;;;16.10;15.50;;;18.80;47.00;;;;;;5071667;28;20546;-57
2023/02/10 03:46:11;;;;;;;14.17;13.67;;;18.80;47.00;;;;;;5071655;28;20999;-57
2023/02/10 03:48:38;;;;;;;15.17;14.43;;;18.80;47.00;;;;;;5071588;28;20530;-55
2023/02/10 03:51:07;;;;;;;15.00;14.40;;;18.80;47.00;;;;;;5071221;28;20441;-54
2023/02/10 03:53:36;;;;;;;14.57;14.07;;;18.80;47.00;;;;;;5071606;28;20459;-57
2023/02/10 03:56:03;;;;;;;15.10;14.40;;;18.80;47.00;;;;;;5071533;28;20530;-55
2023/02/10 03:58:30;;;;;;;14.60;13.73;;;18.80;47.00;;;;;;5071621;28;20454;-55
2023/02/10 04:00:56;;;;;;;15.33;14.70;;;18.80;47.00;;;;;;5070859;28;20453;-56
2023/02/10 04:03:23;;;;;;;14.50;13.80;;;18.80;47.00;;;;;;5071408;28;20554;-53
2023/02/10 04:05:50;;;;;;;14.43;13.80;;;18.80;47.00;;;;;;5071336;28;20487;-53
2023/02/10 04:08:17;;;;;;;15.47;14.67;;;18.80;47.10;;;;;;5071516;28;20530;-53
2023/02/10 04:10:45;;;;;;;15.60;14.70;;;18.80;47.10;;;;;;5071100;28;20450;-57
2023/02/10 04:13:12;;;;;;;14.57;13.87;;;18.80;47.10;;;;;;5051511;28;20461;-56
2023/02/10 04:15:39;;;;;;;13.97;13.27;;;18.80;47.60;;;;;;5051434;28;20866;-54
2023/02/10 04:18:06;;;;;;;14.57;13.93;;;18.80;47.10;;;;;;5051339;28;20532;-57
2023/02/10 04:20:32;;;;;;;15.13;14.37;;;18.80;47.10;;;;;;5063269;28;20522;-56
2023/02/10 04:22:59;;;;;;;13.83;13.23;;;18.80;47.10;;;;;;5071139;28;20485;-55
2023/02/10 04:25:26;;;;;;;15.30;14.40;;;18.80;47.20;;;;;;5071275;28;20462;-54
2023/02/10 04:27:54;;;;;;;14.90;14.10;;;18.80;47.50;;;;;;5071271;28;20442;-56
2023/02/10 04:30:21;;;;;;;15.90;15.10;;;18.80;47.70;;;;;;5070999;28;20439;-56
2023/02/10 04:32:48;;;;;;;14.60;14.00;;;18.80;47.80;;;;;;5071153;28;20988;-58
2023/02/10 04:35:15;;;;;;;15.40;14.70;;;18.80;47.80;;;;;;5071250;28;20534;-55
2023/02/10 04:37:42;;;;;;;14.50;13.80;;;18.80;47.80;;;;;;5071170;28;20443;-57
2023/02/10 04:40:09;;;;;;;14.70;13.67;;;18.80;47.80;;;;;;5070799;28;20952;-57
2023/02/10 04:42:36;;;;;;;14.07;13.37;;;18.80;47.80;;;;;;5071236;28;20463;-54
2023/02/10 04:45:05;;;;;;;14.63;13.83;;;18.80;47.80;;;;;;5071325;28;20512;-56
2023/02/10 04:47:32;;;;;;;15.33;14.63;;;18.80;47.80;;;;;;5070724;28;20485;-57
2023/02/10 04:49:59;;;;;;;14.97;14.07;;;18.90;47.80;;;;;;5071047;28;20475;-59
2023/02/10 04:52:25;;;;;;;15.00;14.30;;;18.90;47.80;;;;;;5071072;28;20527;-58
2023/02/10 04:54:52;;;;;;;14.40;13.57;;;18.90;47.80;;;;;;5071300;28;20530;-56
2023/02/10 04:57:19;;;;;;;15.47;14.67;;;18.90;47.80;;;;;;5070980;28;20443;-59
2023/02/10 04:59:46;;;;;;;15.53;14.73;;;18.90;47.80;;;;;;5070677;28;20444;-58
2023/02/10 05:02:14;;;;;;;14.70;14.00;;;18.90;47.90;;;;;;5070962;28;20970;-58
2023/02/10 05:04:41;;;;;;;15.60;14.90;;;18.90;47.90;;;;;;5071125;28;20537;-56
2023/02/10 05:07:08;;;;;;;14.73;13.83;;;18.80;47.80;;;;;;5071121;28;20922;-58
2023/02/10 05:09:35;;;;;;;14.20;13.60;;;18.90;47.90;;;;;;5073971;28;20539;-54
2023/02/10 05:12:01;;;;;;;13.87;13.33;;;18.80;47.80;;;;;;5074428;28;20879;-59
2023/02/10 05:14:28;;;;;;;14.27;13.57;;;18.80;47.80;;;;;;5074366;28;20550;-55
2023/02/10 05:16:55;;;;;;;13.87;13.27;;;18.80;47.80;;;;;;5074407;28;20450;-57
2023/02/10 05:19:23;;;;;;;12.93;12.43;;;18.80;47.80;;;;;;5074155;28;20806;-57
2023/02/10 05:21:50;;;;;;;15.83;15.03;;;18.80;47.80;;;;;;5074254;28;20443;-58
2023/02/10 05:24:17;;;;;;;14.37;13.60;;;18.80;47.80;;;;;;5090579;22;20921;-61
2023/02/10 05:26:44;;;;;;;15.37;14.63;;;18.80;47.80;;;;;;5064771;28;20471;-62
2023/02/10 05:29:11;;;;;;;14.57;13.97;;;18.80;47.80;;;;;;5055212;28;20448;-64
2023/02/10 05:31:38;;;;;;;14.00;13.40;;;18.80;47.80;;;;;;5055462;28;20523;-60
2023/02/10 05:34:04;;;;;;;13.47;12.87;;;18.80;47.90;;;;;;5055764;28;20468;-63
2023/02/10 05:36:33;;;;;;;14.33;13.63;;;18.80;47.90;;;;;;5055525;28;20527;-62
2023/02/10 05:41:58;;;;;;;15.87;14.87;;;18.80;47.80;;;;;;4992621;28;20426;-63
2023/02/10 05:44:25;;;;;;;15.33;14.23;;;18.80;47.60;;;;;;5041646;28;20478;-64
2023/02/10 05:46:52;;;;;;;18.17;15.60;;;18.80;47.50;;;;;;5054318;28;20468;-63
2023/02/10 05:49:20;;;;;;;16.00;14.80;;;18.80;47.60;;;;;;5054382;28;20544;-63
2023/02/10 05:51:48;;;;;;;17.57;16.10;;;18.90;48.00;;;;;;5053817;28;20806;-63
2023/02/10 05:54:15;;;;;;;17.70;16.30;;;18.90;48.50;;;;;;5053633;28;20468;-64
2023/02/10 05:56:42;;;;;;;16.50;15.50;;;18.90;48.90;;;;;;5053740;28;20445;-63
2023/02/10 05:59:11;;;;;;;17.57;16.10;;;18.90;50.40;;;;;;5053513;28;20530;-61
2023/02/10 06:01:38;;;;;;;18.60;16.77;;;19.00;50.60;;;;;;5052781;28;20979;-64
2023/02/10 06:04:05;;;;;;;17.40;15.83;;;19.00;52.00;;;;;;5053401;28;20552;-64
2023/02/10 06:06:31;;;;;;;15.40;14.40;;;19.00;52.90;;;;;;5053405;28;20566;-64
2023/02/10 06:09:00;;;;;;;18.80;17.33;;;19.00;53.20;;;;;;5053543;28;20538;-64
2023/02/10 06:11:26;;;;;;;17.37;15.77;;;19.10;53.00;;;;;;5053578;28;20872;-64
2023/02/10 06:13:53;;;;;;;16.23;15.07;;;19.10;52.70;;;;;;5053407;28;21042;-63
2023/02/10 06:16:20;;;;;;;17.53;15.90;;;19.10;52.30;;;;;;5053395;28;20531;-64
2023/02/10 06:18:47;;;;;;;16.40;15.20;;;19.10;51.90;;;;;;5052508;28;20868;-63
2023/02/10 06:21:15;;;;;;;15.37;14.47;;;19.10;52.00;;;;;;5053177;28;20866;-64
2023/02/10 06:23:42;;;;;;;15.50;14.33;;;19.20;51.20;;;;;;5053170;28;20472;-64
2023/02/10 06:26:10;;;;;;;16.40;15.23;;;19.20;51.00;;;;;;5053169;28;20810;-63
2023/02/10 06:28:37;;;;;;;16.33;15.20;;;19.20;50.70;;;;;;5053380;28;20448;-64
2023/02/10 06:31:04;;;;;;;17.67;16.33;;;19.20;50.40;;;;;;5053572;28;20949;-61
2023/02/10 06:33:33;;;;;;;15.33;14.33;;;19.20;50.20;;;;;;5053031;28;21016;-61
2023/02/10 06:36:02;;;;;;;16.17;15.40;;;19.20;50.00;;;;;;5052873;28;20452;-62
2023/02/10 06:38:29;;;;;;;17.17;16.13;;;19.20;49.70;;;;;;5053116;28;20957;-61
2023/02/10 06:40:55;;;;;;;16.07;14.93;;;19.20;49.60;;;;;;5052663;28;20495;-60
2023/02/10 06:43:24;;;;;;;17.50;16.80;;;19.20;49.40;;;;;;5052875;28;20981;-63
2023/02/10 06:45:50;;;;;;;17.43;16.10;;;19.20;49.20;;;;;;5052762;28;20539;-59
2023/02/10 06:48:17;;;;;;;16.13;14.77;;;19.20;49.00;;;;;;5052881;28;20486;-61
2023/02/10 06:50:44;;;;;;;15.20;14.40;;;19.20;48.90;;;;;;5052411;28;20808;-62
2023/02/10 06:53:11;;;;;;;16.47;15.57;;;19.30;49.40;;;;;;5052733;28;20551;-64
2023/02/10 06:55:38;;;;;;;17.77;16.60;;;19.20;48.60;;;;;;5053023;28;20816;-64
2023/02/10 06:58:05;;;;;;;16.17;15.17;;;19.20;48.50;;;;;;5052519;28;20442;-62
2023/02/10 07:00:33;;;;;;;17.17;16.17;;;19.20;48.40;;;;;;5052241;28;20821;-64
2023/02/10 07:03:00;;;;;;;16.20;15.30;;;19.20;48.30;;;;;;5052616;28;20502;-63
2023/02/10 07:05:26;;;;;;;16.27;15.00;;;19.20;48.20;;;;;;5052524;28;20440;-63
2023/02/10 07:07:54;;;;;;;16.77;15.40;;;19.20;48.10;;;;;;5052421;28;20490;-63
2023/02/10 07:10:21;;;;;;;15.67;14.77;;;19.20;48.00;;;;;;5052128;28;20445;-62
2023/02/10 07:12:48;;;;;;;14.53;13.90;;;19.20;48.00;;;;;;5052236;28;20989;-63
2023/02/10 07:15:17;;;;;;;15.20;14.40;;;19.20;47.90;;;;;;5052356;28;20552;-64
2023/02/10 07:17:45;;;;;;;15.57;14.67;;;19.20;47.80;;;;;;5052323;28;20960;-64
2023/02/10 07:20:13;;;;;;;16.07;15.27;;;19.20;47.80;;;;;;5052193;28;20464;-64
2023/02/10 07:22:39;;;;;;;15.43;14.63;;;19.30;47.90;;;;;;5052143;28;20539;-64
2023/02/10 07:25:06;;;;;;;16.70;15.43;;;19.30;47.80;;;;;;5052265;28;20534;-64
2023/02/10 07:27:33;;;;;;;14.60;13.80;;;19.30;47.70;;;;;;5052437;28;20479;-63
2023/02/10 07:30:00;;;;;;;16.30;15.40;;;19.30;47.60;;;;;;5051628;28;20456;-64
2023/02/10 07:32:27;;;;;;;16.33;14.17;;;19.30;47.60;;;;;;5052040;28;20475;-64
2023/02/10 07:34:55;;;;;;;14.93;14.03;;;19.40;47.60;;;;;;5051959;28;20470;-63
2023/02/10 07:37:22;;;;;;;14.97;14.03;;;19.40;47.60;;;;;;5051981;28;20981;-63
2023/02/10 07:39:49;;;;;;;14.30;13.50;;;19.40;47.40;;;;;;5051849;28;20444;-64
2023/02/10 07:42:16;;;;;;;15.80;14.80;;;19.40;47.40;;;;;;5051991;28;20895;-64
2023/02/10 07:44:43;;;;;;;14.70;14.00;;;19.40;47.30;;;;;;5051719;28;20555;-64
2023/02/10 07:47:11;;;;;;;14.93;14.03;;;19.40;47.30;;;;;;5051857;28;21635;-64
2023/02/10 07:49:38;;;;;;;14.73;13.93;;;19.40;47.20;;;;;;5051724;28;20436;-64
2023/02/10 07:52:06;;;;;;;15.20;14.57;;;19.40;47.10;;;;;;5051830;28;20829;-63
2023/02/10 07:54:33;;;;;;;15.00;14.30;;;19.40;47.00;;;;;;5051635;28;20468;-64
2023/02/10 07:57:00;;;;;;;15.27;14.27;;;19.40;47.00;;;;;;5052085;28;20439;-64
2023/02/10 07:59:26;;;;;;;14.87;14.17;;;19.40;46.90;;;;;;5051523;28;20442;-63
2023/02/10 08:01:53;;;;;;;15.80;15.00;;;19.40;46.90;;;;;;5051629;28;20447;-64
2023/02/10 08:04:20;;;;;;;15.40;14.60;;;19.40;46.80;;;;;;5051604;28;20559;-62
2023/02/10 08:06:47;;;;;;;15.70;14.60;;;19.40;46.80;;;;;;5051538;28;20479;-63
2023/02/10 08:09:17;;;;;;;15.57;14.77;;;19.40;46.70;;;;;;5051589;28;20450;-62
2023/02/10 08:11:43;;;;;;;14.97;14.37;;;19.40;46.70;;;;;;5051527;28;20462;-64
2023/02/10 08:14:10;;;;;;;15.57;14.83;;;19.40;46.60;;;;;;5051524;28;21052;-63
2023/02/10 08:16:37;;;;;;;14.50;13.80;;;19.40;46.50;;;;;;5051582;28;20459;-64
2023/02/10 08:19:04;;;;;;;14.97;14.23;;;19.40;46.50;;;;;;5051374;28;20535;-63
2023/02/10 08:21:31;;;;;;;14.43;13.77;;;19.40;46.50;;;;;;5051344;28;20479;-63
2023/02/10 08:23:58;;;;;;;15.03;14.33;;;19.40;46.40;;;;;;5051144;28;20814;-64
2023/02/10 08:26:26;;;;;;;14.47;13.90;;;19.40;46.40;;;;;;5051670;28;20531;-64
2023/02/10 08:28:54;;;;;;;14.83;14.23;;;19.40;46.40;;;;;;5050974;28;20482;-63
2023/02/10 08:31:22;;;;;;;15.00;14.20;;;19.40;46.40;;;;;;5051478;28;20452;-63
2023/02/10 08:33:48;;;;;;;14.73;14.03;;;19.40;46.90;;;;;;5051384;28;20980;-63
2023/02/10 08:36:18;;;;;;;14.17;13.37;;;19.40;46.30;;;;;;5051280;28;20475;-63
2023/02/10 08:38:46;;;;;;;15.47;14.63;;;19.40;46.30;;;;;;5051280;28;20925;-64
2023/02/10 08:41:12;;;;;;;14.47;13.87;;;19.30;46.20;;;;;;5051575;28;20443;-63
2023/02/10 08:43:41;;;;;;;14.77;13.80;;;19.40;46.20;;;;;;5054236;28;20552;-63
2023/02/10 08:46:07;;;;;;;15.87;15.07;;;19.30;46.20;;;;;;5055131;28;20440;-63
2023/02/10 08:48:35;;;;;;;14.63;13.93;;;19.30;46.10;;;;;;5055002;28;20501;-64
2023/02/10 08:51:05;;;;;;;14.73;13.97;;;19.30;46.10;;;;;;5054795;28;20439;-63
2023/02/10 08:53:32;;;;;;;16.13;15.47;;;19.30;46.10;;;;;;5054911;28;20470;-63
2023/02/10 08:56:00;;;;;;;14.30;13.70;;;19.30;46.20;;;;;;5055006;28;20535;-63
2023/02/10 08:58:28;;;;;;;12.80;12.40;;;19.40;46.20;;;;;;5054913;28;20440;-64
2023/02/10 09:00:56;;;;;;;14.03;13.40;;;19.40;46.20;;;;;;5054790;28;20452;-65
2023/02/10 09:03:23;;;;;;;14.30;13.57;;;19.40;46.20;;;;;;5054804;28;20464;-65
2023/02/10 09:05:50;;;;;;;14.40;13.60;;;19.40;46.20;;;;;;5054811;28;20454;-63
2023/02/10 09:08:18;;;;;;;14.27;13.60;;;19.50;46.20;;;;;;5054607;28;20479;-64
2023/02/10 09:10:46;;;;;;;14.43;13.83;;;19.50;46.20;;;;;;5054463;28;20454;-65
2023/02/10 09:13:13;;;;;;;14.97;14.27;;;19.50;46.20;;;;;;5054581;28;20470;-64
2023/02/10 09:15:41;;;;;;;13.90;13.30;;;19.50;46.10;;;;;;5054568;28;20466;-64
2023/02/10 09:18:10;;;;;;;12.90;12.40;;;19.50;46.70;;;;;;5054584;28;20503;-64
2023/02/10 09:20:37;;;;;;;14.10;13.50;;;19.50;46.10;;;;;;5054274;28;20447;-64
2023/02/10 09:23:04;;;;;;;13.77;13.17;;;19.50;46.00;;;;;;5054314;28;20472;-65
2023/02/10 09:25:32;;;;;;;13.33;12.83;;;19.50;46.00;;;;;;5054428;28;20474;-64
2023/02/10 09:27:58;;;;;;;14.30;13.80;;;19.60;46.00;;;;;;5054178;28;20480;-63
2023/02/10 09:30:26;;;;;;;14.73;13.93;;;19.50;45.90;;;;;;5054311;28;20472;-64
2023/02/10 09:32:53;;;;;;;15.17;14.40;;;19.50;45.90;;;;;;5054080;28;20462;-63
2023/02/10 09:35:21;;;;;;;15.63;14.87;;;19.60;46.50;;;;;;5054209;28;20447;-63
2023/02/10 09:37:48;;;;;;;14.40;13.80;;;19.60;45.90;;;;;;5054060;28;20444;-64
2023/02/10 09:40:18;;;;;;;14.33;13.83;;;19.60;45.90;;;;;;5053767;28;20472;-62
2023/02/10 09:43:01;;;;;;;14.60;14.10;;;19.60;45.90;;;;;;5054076;28;20957;-63
2023/02/10 09:45:36;;;;;;;14.73;14.13;;;19.60;45.90;;;;;;5054099;28;20446;-64
2023/02/10 09:48:25;;;;;;;14.47;13.87;;;19.50;45.70;;;;;;5053805;28;20943;-63
2023/02/10 09:51:02;;;;;;;14.30;13.70;;;19.50;45.70;;;;;;5053668;28;20450;-63
2023/02/10 09:53:31;;;;;;;14.70;14.10;;;19.60;45.80;;;;;;5053489;28;20499;-63
2023/02/10 09:56:01;;;;;;;14.60;14.03;;;19.50;45.70;;;;;;5053808;28;20444;-64
2023/02/10 09:58:34;;;;;;;14.67;14.10;;;19.60;45.70;;;;;;5053807;28;20922;-64
2023/02/10 10:01:07;;;;;;;14.07;13.50;;;19.60;45.70;;;;;;5053536;28;20539;-63
2023/02/10 10:03:43;;;;;;;14.80;14.30;;;19.50;45.60;;;;;;5053497;28;20464;-64
2023/02/10 10:06:19;;;;;;;14.93;14.23;;;19.50;45.60;;;;;;5053471;28;20458;-63
2023/02/10 10:08:54;;;;;;;14.63;14.03;;;19.60;45.60;;;;;;5053230;28;20490;-62
2023/02/10 10:11:26;;;;;;;14.40;13.90;;;19.50;45.50;;;;;;5053317;28;20444;-64
2023/02/10 10:13:55;;;;;;;14.90;14.30;;;19.50;45.50;;;;;;5053344;28;20468;-65
2023/02/10 10:16:41;;;;;;;14.87;14.27;;;19.50;45.50;;;;;;5053378;28;20439;-62
2023/02/10 10:19:17;;;;;;;14.07;13.57;;;19.50;45.50;;;;;;5053307;28;20452;-63
2023/02/10 10:21:58;;;;;;;14.83;14.13;;;19.50;45.50;;;;;;5053403;28;20872;-63
2023/02/10 10:24:51;;;;;;;14.90;14.30;;;19.50;45.50;;;;;;5053212;28;20483;-64
2023/02/10 10:27:30;;;;;;;15.73;15.03;;;19.50;45.50;;;;;;5053020;28;20449;-64
2023/02/10 10:30:06;;;;;;;14.53;13.93;;;19.50;45.50;;;;;;5053026;28;20451;-63
2023/02/10 10:32:42;;;;;;;14.40;13.90;;;19.50;45.60;;;;;;5053158;28;20479;-64
2023/02/10 10:35:17;;;;;;;14.70;14.10;;;19.50;45.50;;;;;;5052985;28;20444;-63
2023/02/10 10:37:45;;;;;;;15.20;14.53;;;19.50;45.50;;;;;;5052885;28;20509;-64
2023/02/10 10:40:17;;;;;;;14.43;13.83;;;19.50;45.60;;;;;;5052904;28;20941;-64
2023/02/10 10:42:46;;;;;;;15.77;15.07;;;19.50;45.60;;;;;;5053111;28;20785;-64
2023/02/10 10:45:17;;;;;;;14.97;14.47;;;19.50;45.60;;;;;;5052846;28;20455;-63
2023/02/10 10:47:47;;;;;;;15.30;14.70;;;19.60;45.70;;;;;;5052781;28;20486;-64
2023/02/10 10:50:17;;;;;;;14.40;13.90;;;19.60;45.60;;;;;;5052577;28;20444;-64
2023/02/10 10:52:51;;;;;;;14.27;13.77;;;19.60;46.20;;;;;;5052802;28;20444;-64
2023/02/10 10:55:23;;;;;;;14.60;14.10;;;19.70;45.70;;;;;;5052561;28;20918;-64
2023/02/10 10:57:52;;;;;;;13.73;13.23;;;19.70;45.70;;;;;;5052835;28;20449;-63
2023/02/10 11:00:21;;;;;;;14.87;14.17;;;19.70;45.60;;;;;;5052376;28;20444;-64
2023/02/10 11:02:53;;;;;;;14.63;14.03;;;19.70;45.60;;;;;;5052459;28;20941;-64
2023/02/10 11:05:20;;;;;;;14.60;14.00;;;19.70;45.50;;;;;;5051929;28;20440;-64
2023/02/10 11:07:52;;;;;;;13.97;13.47;;;19.70;45.50;;;;;;5052548;28;20503;-63
2023/02/10 11:10:25;;;;;;;14.30;13.70;;;19.70;45.50;;;;;;5052324;28;20455;-63
2023/02/10 11:12:52;;;;;;;14.40;13.90;;;19.70;45.50;;;;;;5052282;28;20542;-63
2023/02/10 11:15:37;;;;;;;13.83;13.40;;;19.70;45.40;;;;;;5052291;28;20452;-64
2023/02/10 11:18:06;;;;;;;14.27;13.73;;;19.70;45.40;;;;;;5052744;28;20451;-64
2023/02/10 11:20:35;;;;;;;14.30;13.70;;;19.80;45.50;;;;;;5051926;28;20447;-63
2023/02/10 11:23:12;;;;;;;14.40;13.97;;;19.80;45.40;;;;;;5052752;28;20468;-63
2023/02/10 11:25:39;;;;;;;14.10;13.60;;;19.80;45.40;;;;;;5051943;28;20440;-62
2023/02/10 11:28:17;;;;;;;14.40;13.80;;;19.70;45.30;;;;;;5051962;28;20997;-62
2023/02/10 11:30:46;;;;;;;14.30;13.80;;;19.70;45.30;;;;;;5051874;28;20841;-61
2023/02/10 11:33:21;;;;;;;16.10;15.40;;;19.70;45.30;;;;;;5051941;28;20464;-61
2023/02/10 11:35:50;;;;;;;14.60;14.03;;;19.70;45.30;;;;;;5051939;28;20456;-63
2023/02/10 11:38:21;;;;;;;15.57;14.97;;;19.70;45.80;;;;;;5051977;28;20527;-60
2023/02/10 11:40:52;;;;;;;14.90;14.40;;;19.70;45.20;;;;;;5051622;28;20444;-60
2023/02/10 11:43:20;;;;;;;14.27;13.67;;;19.70;45.20;;;;;;5051830;28;20824;-58
2023/02/10 11:45:54;;;;;;;14.30;13.80;;;19.70;45.20;;;;;;5051912;28;20454;-61
2023/02/10 11:48:23;;;;;;;14.67;14.10;;;19.70;45.20;;;;;;5051584;28;20839;-60
2023/02/10 11:51:01;;;;;;;15.33;14.73;;;19.70;45.20;;;;;;5051609;28;20444;-62
2023/02/10 11:53:33;;;;;;;14.63;14.03;;;19.70;45.20;;;;;;5051733;28;20564;-60
2023/02/10 11:56:03;;;;;;;14.23;13.63;;;19.70;45.20;;;;;;5051738;28;20448;-61
2023/02/10 11:58:59;;;;;;;14.47;13.77;;;19.70;45.20;;;;;;5051773;28;20440;-60
2023/02/10 12:01:38;;;;;;;14.80;14.20;;;19.70;45.20;;;;;;5051573;28;20443;-61
2023/02/10 12:04:16;;;;;;;14.10;13.50;;;19.70;45.10;;;;;;5051518;28;20472;-63
2023/02/10 12:06:53;;;;;;;14.33;13.83;;;19.70;45.10;;;;;;5051658;28;20440;-62
2023/02/10 12:09:30;;;;;;;14.40;13.80;;;19.70;45.10;;;;;;5051594;28;20484;-62
2023/02/10 12:12:05;;;;;;;14.00;13.50;;;19.70;45.10;;;;;;5051519;28;20450;-62
2023/02/10 12:14:48;;;;;;;14.23;13.73;;;19.70;45.10;;;;;;5051493;28;20549;-60
2023/02/10 12:17:26;;;;;;;13.97;13.47;;;19.70;45.10;;;;;;5053820;28;20447;-62
2023/02/10 12:20:15;;;;;;;14.37;13.80;;;19.70;45.00;;;;;;5055360;28;20454;-59
2023/02/10 12:22:54;;;;;;;14.03;13.53;;;19.70;45.00;;;;;;5055546;28;20494;-61
2023/02/10 12:25:27;;;;;;;14.23;13.73;;;19.70;45.10;;;;;;5055457;28;20454;-61
2023/02/10 12:28:02;;;;;;;13.60;13.10;;;19.80;45.20;;;;;;5055285;28;20871;-62
2023/02/10 12:30:47;;;;;;;14.03;13.50;;;19.80;45.20;;;;;;5055307;28;20448;-62
2023/02/10 12:33:36;;;;;;;14.20;13.70;;;19.80;45.20;;;;;;5055257;28;21032;-63
2023/02/10 12:36:11;;;;;;;13.57;13.17;;;19.80;45.20;;;;;;5055389;28;20750;-62
2023/02/10 12:38:55;;;;;;;14.47;13.97;;;19.90;45.30;;;;;;5055135;28;20439;-62
2023/02/10 12:41:30;;;;;;;15.00;14.43;;;19.90;45.20;;;;;;5055194;28;20454;-62
2023/02/10 12:44:09;;;;;;;14.70;13.97;;;19.90;45.20;;;;;;5054962;28;21117;-62
2023/02/10 12:46:46;;;;;;;14.40;13.90;;;20.00;45.20;;;;;;5055143;28;21015;-60